sensor_id;sensor_type;location;lat;lon;timestamp;P1;durP1;ratioP1;P2;durP2;ratioP2
19560;SDS011;9927;47.792;10.616;2022-08-01T03:00:47;35.05;;;5.78;;
19560;SDS011;9927;47.792;10.616;2022-08-01T03:03:15;4.90;;;4.60;;
19560;SDS011;9927;47.792;10.616;2022-08-01T03:05:43;4.95;;;4.53;;
19560;SDS011;9927;47.792;10.616;2022-08-01T03:08:12;4.10;;;3.90;;
19560;SDS011;9927;47.792;10.616;2022-08-01T03:10:42;5.63;;;4.47;;
19560;SDS011;9927;47.792;10.616;2022-08-01T03:13:13;4.05;;;3.75;;
19560;SDS011;9927;47.792;10.616;2022-08-01T03:15:43;4.50;;;4.30;;
19560;SDS011;9927;47.792;10.616;2022-08-01T03:18:11;4.30;;;3.95;;
19560;SDS011;9927;47.792;10.616;2022-08-01T03:20:40;5.10;;;4.30;;
19560;SDS011;9927;47.792;10.616;2022-08-01T03:23:10;4.00;;;3.70;;
19560;SDS011;9927;47.792;10.616;2022-08-01T03:25:39;3.95;;;3.58;;
19560;SDS011;9927;47.792;10.616;2022-08-01T03:28:08;3.80;;;3.60;;
19560;SDS011;9927;47.792;10.616;2022-08-01T03:30:39;4.55;;;4.13;;
19560;SDS011;9927;47.792;10.616;2022-08-01T03:33:08;4.22;;;3.85;;
19560;SDS011;9927;47.792;10.616;2022-08-01T03:35:42;3.90;;;3.60;;
19560;SDS011;9927;47.792;10.616;2022-08-01T03:38:16;3.83;;;3.55;;
19560;SDS011;9927;47.792;10.616;2022-08-01T03:40:47;3.80;;;3.60;;
19560;SDS011;9927;47.792;10.616;2022-08-01T03:43:21;3.75;;;3.55;;
19560;SDS011;9927;47.792;10.616;2022-08-01T03:45:58;4.38;;;4.05;;
19560;SDS011;9927;47.792;10.616;2022-08-01T03:48:35;4.13;;;3.90;;
19560;SDS011;9927;47.792;10.616;2022-08-01T03:51:06;4.75;;;4.45;;
19560;SDS011;9927;47.792;10.616;2022-08-01T03:53:35;3.95;;;3.75;;
19560;SDS011;9927;47.792;10.616;2022-08-01T03:56:08;4.88;;;4.38;;
19560;SDS011;9927;47.792;10.616;2022-08-01T03:58:38;4.85;;;4.55;;
19560;SDS011;9927;47.792;10.616;2022-08-01T04:01:06;4.68;;;4.30;;
19560;SDS011;9927;47.792;10.616;2022-08-01T04:03:42;4.45;;;4.15;;
19560;SDS011;9927;47.792;10.616;2022-08-01T04:06:10;4.00;;;3.70;;
19560;SDS011;9927;47.792;10.616;2022-08-01T04:08:37;4.53;;;4.20;;
19560;SDS011;9927;47.792;10.616;2022-08-01T04:11:07;5.50;;;5.10;;
19560;SDS011;9927;47.792;10.616;2022-08-01T04:13:35;5.38;;;4.97;;
19560;SDS011;9927;47.792;10.616;2022-08-01T04:16:04;4.97;;;4.63;;
19560;SDS011;9927;47.792;10.616;2022-08-01T04:18:31;5.30;;;4.80;;
19560;SDS011;9927;47.792;10.616;2022-08-01T04:20:58;4.68;;;4.28;;
19560;SDS011;9927;47.792;10.616;2022-08-01T04:23:26;4.82;;;4.53;;
19560;SDS011;9927;47.792;10.616;2022-08-01T04:25:58;5.25;;;4.85;;
19560;SDS011;9927;47.792;10.616;2022-08-01T04:28:31;4.45;;;4.22;;
19560;SDS011;9927;47.792;10.616;2022-08-01T04:31:02;5.03;;;4.65;;
19560;SDS011;9927;47.792;10.616;2022-08-01T04:33:36;5.22;;;4.82;;
19560;SDS011;9927;47.792;10.616;2022-08-01T04:36:07;5.20;;;4.65;;
19560;SDS011;9927;47.792;10.616;2022-08-01T04:38:38;4.53;;;4.20;;
19560;SDS011;9927;47.792;10.616;2022-08-01T04:41:09;6.05;;;4.97;;
19560;SDS011;9927;47.792;10.616;2022-08-01T04:43:39;5.22;;;4.50;;
19560;SDS011;9927;47.792;10.616;2022-08-01T04:46:10;6.38;;;5.05;;
19560;SDS011;9927;47.792;10.616;2022-08-01T04:48:38;5.10;;;4.70;;
19560;SDS011;9927;47.792;10.616;2022-08-01T04:51:15;7.28;;;4.90;;
19560;SDS011;9927;47.792;10.616;2022-08-01T04:53:44;5.30;;;5.00;;
19560;SDS011;9927;47.792;10.616;2022-08-01T04:56:15;5.53;;;5.03;;
19560;SDS011;9927;47.792;10.616;2022-08-01T04:58:42;4.97;;;4.65;;
19560;SDS011;9927;47.792;10.616;2022-08-01T05:01:10;5.15;;;4.85;;
19560;SDS011;9927;47.792;10.616;2022-08-01T05:03:37;5.38;;;4.88;;
19560;SDS011;9927;47.792;10.616;2022-08-01T05:06:05;6.32;;;5.35;;
19560;SDS011;9927;47.792;10.616;2022-08-01T05:08:32;5.60;;;5.10;;
19560;SDS011;9927;47.792;10.616;2022-08-01T05:11:00;5.70;;;5.20;;
19560;SDS011;9927;47.792;10.616;2022-08-01T05:13:27;5.43;;;4.93;;
19560;SDS011;9927;47.792;10.616;2022-08-01T05:15:55;5.50;;;4.72;;
19560;SDS011;9927;47.792;10.616;2022-08-01T05:18:22;5.07;;;4.65;;
19560;SDS011;9927;47.792;10.616;2022-08-01T05:20:54;5.43;;;4.93;;
19560;SDS011;9927;47.792;10.616;2022-08-01T05:23:21;4.82;;;4.53;;
19560;SDS011;9927;47.792;10.616;2022-08-01T05:26:09;4.88;;;4.47;;
19560;SDS011;9927;47.792;10.616;2022-08-01T05:28:40;5.47;;;5.07;;
19560;SDS011;9927;47.792;10.616;2022-08-01T05:31:08;5.78;;;5.28;;
19560;SDS011;9927;47.792;10.616;2022-08-01T05:33:35;6.70;;;5.47;;
19560;SDS011;9927;47.792;10.616;2022-08-01T05:36:02;5.32;;;5.03;;
19560;SDS011;9927;47.792;10.616;2022-08-01T05:38:30;5.72;;;5.38;;
19560;SDS011;9927;47.792;10.616;2022-08-01T05:40:57;5.68;;;5.25;;
19560;SDS011;9927;47.792;10.616;2022-08-01T05:43:24;8.23;;;5.38;;
19560;SDS011;9927;47.792;10.616;2022-08-01T05:45:54;4.45;;;4.05;;
19560;SDS011;9927;47.792;10.616;2022-08-01T05:48:22;6.95;;;4.90;;
19560;SDS011;9927;47.792;10.616;2022-08-01T05:50:49;6.05;;;5.45;;
19560;SDS011;9927;47.792;10.616;2022-08-01T05:53:22;5.93;;;4.63;;
19560;SDS011;9927;47.792;10.616;2022-08-01T05:55:49;5.22;;;4.82;;
19560;SDS011;9927;47.792;10.616;2022-08-01T05:58:16;6.88;;;4.60;;
19560;SDS011;9927;47.792;10.616;2022-08-01T06:00:44;4.72;;;4.32;;
19560;SDS011;9927;47.792;10.616;2022-08-01T06:03:11;4.53;;;4.13;;
19560;SDS011;9927;47.792;10.616;2022-08-01T06:05:38;5.60;;;3.67;;
19560;SDS011;9927;47.792;10.616;2022-08-01T06:08:05;4.43;;;3.65;;
19560;SDS011;9927;47.792;10.616;2022-08-01T06:10:33;5.80;;;3.60;;
19560;SDS011;9927;47.792;10.616;2022-08-01T06:13:00;4.28;;;3.78;;
19560;SDS011;9927;47.792;10.616;2022-08-01T06:15:30;3.55;;;3.35;;
19560;SDS011;9927;47.792;10.616;2022-08-01T06:17:58;3.97;;;3.20;;
19560;SDS011;9927;47.792;10.616;2022-08-01T06:20:26;4.28;;;3.60;;
19560;SDS011;9927;47.792;10.616;2022-08-01T06:22:53;3.40;;;3.20;;
19560;SDS011;9927;47.792;10.616;2022-08-01T06:25:22;5.43;;;3.22;;
19560;SDS011;9927;47.792;10.616;2022-08-01T06:27:49;2.95;;;2.80;;
19560;SDS011;9927;47.792;10.616;2022-08-01T06:30:16;2.50;;;2.30;;
19560;SDS011;9927;47.792;10.616;2022-08-01T06:32:43;3.35;;;2.70;;
19560;SDS011;9927;47.792;10.616;2022-08-01T06:35:11;2.40;;;2.30;;
19560;SDS011;9927;47.792;10.616;2022-08-01T06:37:38;2.75;;;2.55;;
19560;SDS011;9927;47.792;10.616;2022-08-01T06:40:06;2.55;;;2.45;;
19560;SDS011;9927;47.792;10.616;2022-08-01T06:42:42;2.30;;;2.20;;
19560;SDS011;9927;47.792;10.616;2022-08-01T06:45:11;2.40;;;2.30;;
19560;SDS011;9927;47.792;10.616;2022-08-01T06:47:39;2.50;;;2.30;;
19560;SDS011;9927;47.792;10.616;2022-08-01T06:50:08;3.30;;;2.65;;
19560;SDS011;9927;47.792;10.616;2022-08-01T06:52:37;2.30;;;2.20;;
19560;SDS011;9927;47.792;10.616;2022-08-01T06:55:04;2.72;;;2.30;;
19560;SDS011;9927;47.792;10.616;2022-08-01T06:57:32;2.00;;;2.00;;
19560;SDS011;9927;47.792;10.616;2022-08-01T07:00:06;2.30;;;2.20;;
19560;SDS011;9927;47.792;10.616;2022-08-01T07:02:39;2.15;;;2.08;;
19560;SDS011;9927;47.792;10.616;2022-08-01T07:05:06;2.33;;;2.22;;
19560;SDS011;9927;47.792;10.616;2022-08-01T07:07:34;3.58;;;2.50;;
19560;SDS011;9927;47.792;10.616;2022-08-01T07:10:01;3.97;;;2.40;;
19560;SDS011;9927;47.792;10.616;2022-08-01T07:12:29;3.47;;;2.17;;
19560;SDS011;9927;47.792;10.616;2022-08-01T07:14:57;2.20;;;2.20;;
19560;SDS011;9927;47.792;10.616;2022-08-01T07:17:24;3.38;;;2.30;;
19560;SDS011;9927;47.792;10.616;2022-08-01T07:19:51;2.28;;;2.08;;
19560;SDS011;9927;47.792;10.616;2022-08-01T07:22:23;2.30;;;2.13;;
19560;SDS011;9927;47.792;10.616;2022-08-01T07:24:52;2.45;;;2.25;;
19560;SDS011;9927;47.792;10.616;2022-08-01T07:27:20;2.05;;;2.00;;
19560;SDS011;9927;47.792;10.616;2022-08-01T07:29:51;2.30;;;2.20;;
19560;SDS011;9927;47.792;10.616;2022-08-01T07:32:19;2.42;;;2.22;;
19560;SDS011;9927;47.792;10.616;2022-08-01T07:34:46;2.20;;;2.15;;
19560;SDS011;9927;47.792;10.616;2022-08-01T07:37:13;2.15;;;2.05;;
19560;SDS011;9927;47.792;10.616;2022-08-01T07:39:41;2.20;;;2.10;;
19560;SDS011;9927;47.792;10.616;2022-08-01T07:42:08;2.30;;;2.20;;
19560;SDS011;9927;47.792;10.616;2022-08-01T07:44:36;2.50;;;2.30;;
19560;SDS011;9927;47.792;10.616;2022-08-01T07:47:04;2.53;;;2.40;;
19560;SDS011;9927;47.792;10.616;2022-08-01T07:49:32;2.50;;;2.40;;
19560;SDS011;9927;47.792;10.616;2022-08-01T07:52:05;2.40;;;2.30;;
19560;SDS011;9927;47.792;10.616;2022-08-01T07:54:33;2.53;;;2.30;;
19560;SDS011;9927;47.792;10.616;2022-08-01T07:57:01;2.67;;;2.58;;
19560;SDS011;9927;47.792;10.616;2022-08-01T07:59:29;2.80;;;2.60;;
19560;SDS011;9927;47.792;10.616;2022-08-01T08:01:57;2.55;;;2.35;;
19560;SDS011;9927;47.792;10.616;2022-08-01T08:04:25;2.65;;;2.40;;
19560;SDS011;9927;47.792;10.616;2022-08-01T08:06:53;2.30;;;2.10;;
19560;SDS011;9927;47.792;10.616;2022-08-01T08:09:20;3.88;;;2.53;;
19560;SDS011;9927;47.792;10.616;2022-08-01T08:11:47;2.55;;;2.45;;
19560;SDS011;9927;47.792;10.616;2022-08-01T08:14:15;2.30;;;2.20;;
19560;SDS011;9927;47.792;10.616;2022-08-01T08:16:43;2.03;;;1.98;;
19560;SDS011;9927;47.792;10.616;2022-08-01T08:19:11;2.42;;;2.30;;
19560;SDS011;9927;47.792;10.616;2022-08-01T08:21:38;2.60;;;2.40;;
19560;SDS011;9927;47.792;10.616;2022-08-01T08:24:06;2.20;;;2.10;;
19560;SDS011;9927;47.792;10.616;2022-08-01T08:27:01;2.10;;;2.00;;
19560;SDS011;9927;47.792;10.616;2022-08-01T08:29:29;1.88;;;1.88;;
19560;SDS011;9927;47.792;10.616;2022-08-01T08:31:59;2.42;;;2.13;;
19560;SDS011;9927;47.792;10.616;2022-08-01T08:34:28;2.67;;;2.47;;
19560;SDS011;9927;47.792;10.616;2022-08-01T08:36:56;2.20;;;2.00;;
19560;SDS011;9927;47.792;10.616;2022-08-01T08:39:25;2.30;;;2.10;;
19560;SDS011;9927;47.792;10.616;2022-08-01T08:41:53;2.45;;;2.35;;
19560;SDS011;9927;47.792;10.616;2022-08-01T08:44:20;2.45;;;2.30;;
19560;SDS011;9927;47.792;10.616;2022-08-01T08:46:49;1.95;;;1.95;;
19560;SDS011;9927;47.792;10.616;2022-08-01T08:49:19;2.20;;;2.10;;
19560;SDS011;9927;47.792;10.616;2022-08-01T08:51:52;2.25;;;2.10;;
19560;SDS011;9927;47.792;10.616;2022-08-01T08:54:21;2.20;;;2.10;;
19560;SDS011;9927;47.792;10.616;2022-08-01T08:56:57;2.22;;;2.13;;
19560;SDS011;9927;47.792;10.616;2022-08-01T08:59:25;2.30;;;2.20;;
19560;SDS011;9927;47.792;10.616;2022-08-01T09:01:54;2.50;;;2.30;;
19560;SDS011;9927;47.792;10.616;2022-08-01T09:04:22;2.40;;;2.30;;
19560;SDS011;9927;47.792;10.616;2022-08-01T09:06:52;2.00;;;2.00;;
19560;SDS011;9927;47.792;10.616;2022-08-01T09:09:20;2.47;;;2.30;;
19560;SDS011;9927;47.792;10.616;2022-08-01T09:11:47;2.08;;;2.00;;
19560;SDS011;9927;47.792;10.616;2022-08-01T09:14:32;2.40;;;2.30;;
19560;SDS011;9927;47.792;10.616;2022-08-01T09:17:03;2.53;;;2.40;;
19560;SDS011;9927;47.792;10.616;2022-08-01T09:19:41;2.08;;;2.08;;
19560;SDS011;9927;47.792;10.616;2022-08-01T09:22:23;2.05;;;1.95;;
19560;SDS011;9927;47.792;10.616;2022-08-01T09:25:25;2.30;;;2.20;;
19560;SDS011;9927;47.792;10.616;2022-08-01T09:27:44;2.20;;;2.10;;
19560;SDS011;9927;47.792;10.616;2022-08-01T09:30:16;2.83;;;2.60;;
19560;SDS011;9927;47.792;10.616;2022-08-01T09:32:53;2.47;;;2.38;;
19560;SDS011;9927;47.792;10.616;2022-08-01T09:35:28;2.55;;;2.45;;
19560;SDS011;9927;47.792;10.616;2022-08-01T09:40:51;2.80;;;2.70;;
19560;SDS011;9927;47.792;10.616;2022-08-01T09:43:24;2.60;;;2.50;;
19560;SDS011;9927;47.792;10.616;2022-08-01T09:45:57;2.92;;;2.80;;
19560;SDS011;9927;47.792;10.616;2022-08-01T09:48:26;3.00;;;2.90;;
19560;SDS011;9927;47.792;10.616;2022-08-01T09:50:56;2.75;;;2.50;;
19560;SDS011;9927;47.792;10.616;2022-08-01T09:53:45;2.80;;;2.60;;
19560;SDS011;9927;47.792;10.616;2022-08-01T09:56:19;2.80;;;2.70;;
19560;SDS011;9927;47.792;10.616;2022-08-01T09:58:54;2.67;;;2.58;;
19560;SDS011;9927;47.792;10.616;2022-08-01T10:01:28;2.55;;;2.40;;
19560;SDS011;9927;47.792;10.616;2022-08-01T10:06:41;2.55;;;2.35;;
19560;SDS011;9927;47.792;10.616;2022-08-01T10:09:12;2.75;;;2.65;;
19560;SDS011;9927;47.792;10.616;2022-08-01T10:11:41;4.03;;;2.58;;
19560;SDS011;9927;47.792;10.616;2022-08-01T10:14:11;2.78;;;2.67;;
19560;SDS011;9927;47.792;10.616;2022-08-01T10:16:44;2.67;;;2.58;;
19560;SDS011;9927;47.792;10.616;2022-08-01T10:19:21;3.20;;;3.00;;
19560;SDS011;9927;47.792;10.616;2022-08-01T10:21:50;2.97;;;2.80;;
19560;SDS011;9927;47.792;10.616;2022-08-01T10:24:25;2.67;;;2.50;;
19560;SDS011;9927;47.792;10.616;2022-08-01T10:26:56;2.80;;;2.60;;
19560;SDS011;9927;47.792;10.616;2022-08-01T10:30:16;2.40;;;2.30;;
19560;SDS011;9927;47.792;10.616;2022-08-01T10:32:49;2.95;;;2.78;;
19560;SDS011;9927;47.792;10.616;2022-08-01T10:35:20;2.50;;;2.40;;
19560;SDS011;9927;47.792;10.616;2022-08-01T10:38:08;2.60;;;2.40;;
19560;SDS011;9927;47.792;10.616;2022-08-01T10:40:39;2.75;;;2.53;;
19560;SDS011;9927;47.792;10.616;2022-08-01T10:43:11;2.70;;;2.60;;
19560;SDS011;9927;47.792;10.616;2022-08-01T10:45:47;2.72;;;2.63;;
19560;SDS011;9927;47.792;10.616;2022-08-01T10:51:02;2.63;;;2.42;;
19560;SDS011;9927;47.792;10.616;2022-08-01T10:53:48;2.42;;;2.33;;
19560;SDS011;9927;47.792;10.616;2022-08-01T10:56:22;2.95;;;2.85;;
19560;SDS011;9927;47.792;10.616;2022-08-01T10:59:02;2.70;;;2.50;;
19560;SDS011;9927;47.792;10.616;2022-08-01T11:01:34;2.85;;;2.65;;
19560;SDS011;9927;47.792;10.616;2022-08-01T11:04:07;2.55;;;2.45;;
19560;SDS011;9927;47.792;10.616;2022-08-01T11:06:53;2.50;;;2.30;;
19560;SDS011;9927;47.792;10.616;2022-08-01T11:09:39;2.92;;;2.72;;
19560;SDS011;9927;47.792;10.616;2022-08-01T11:12:17;2.50;;;2.40;;
19560;SDS011;9927;47.792;10.616;2022-08-01T11:20:30;2.42;;;2.33;;
19560;SDS011;9927;47.792;10.616;2022-08-01T11:28:32;6.88;;;2.45;;
19560;SDS011;9927;47.792;10.616;2022-08-01T11:41:26;2.35;;;2.25;;
19560;SDS011;9927;47.792;10.616;2022-08-01T11:46:49;2.38;;;2.30;;
19560;SDS011;9927;47.792;10.616;2022-08-01T11:52:28;2.50;;;2.30;;
19560;SDS011;9927;47.792;10.616;2022-08-01T11:57:31;2.25;;;2.25;;
19560;SDS011;9927;47.792;10.616;2022-08-01T12:02:44;1.77;;;1.70;;
19560;SDS011;9927;47.792;10.616;2022-08-01T12:05:13;2.10;;;2.00;;
19560;SDS011;9927;47.792;10.616;2022-08-01T12:07:44;2.30;;;2.17;;
19560;SDS011;9927;47.792;10.616;2022-08-01T12:10:13;2.35;;;2.25;;
19560;SDS011;9927;47.792;10.616;2022-08-01T12:12:46;2.45;;;1.80;;
19560;SDS011;9927;47.792;10.616;2022-08-01T12:15:19;2.13;;;2.03;;
19560;SDS011;9927;47.792;10.616;2022-08-01T12:17:56;2.10;;;2.00;;
19560;SDS011;9927;47.792;10.616;2022-08-01T12:20:27;2.08;;;1.98;;
19560;SDS011;9927;47.792;10.616;2022-08-01T12:23:03;2.47;;;2.00;;
19560;SDS011;9927;47.792;10.616;2022-08-01T12:25:32;1.85;;;1.85;;
19560;SDS011;9927;47.792;10.616;2022-08-01T12:28:02;2.00;;;1.90;;
19560;SDS011;9927;47.792;10.616;2022-08-01T12:30:32;3.15;;;2.05;;
19560;SDS011;9927;47.792;10.616;2022-08-01T12:33:04;2.20;;;2.10;;
19560;SDS011;9927;47.792;10.616;2022-08-01T12:35:33;2.10;;;2.08;;
19560;SDS011;9927;47.792;10.616;2022-08-01T12:38:06;2.08;;;1.98;;
19560;SDS011;9927;47.792;10.616;2022-08-01T12:40:41;2.83;;;2.10;;
19560;SDS011;9927;47.792;10.616;2022-08-01T12:43:15;2.28;;;2.08;;
19560;SDS011;9927;47.792;10.616;2022-08-01T12:45:55;2.00;;;1.90;;
19560;SDS011;9927;47.792;10.616;2022-08-01T12:48:25;2.05;;;1.95;;
19560;SDS011;9927;47.792;10.616;2022-08-01T12:50:53;2.20;;;2.10;;
19560;SDS011;9927;47.792;10.616;2022-08-01T12:53:24;1.90;;;1.80;;
19560;SDS011;9927;47.792;10.616;2022-08-01T12:56:07;2.03;;;1.92;;
19560;SDS011;9927;47.792;10.616;2022-08-01T12:58:37;1.73;;;1.65;;
19560;SDS011;9927;47.792;10.616;2022-08-01T13:01:05;2.22;;;2.10;;
19560;SDS011;9927;47.792;10.616;2022-08-01T13:03:34;3.05;;;1.95;;
19560;SDS011;9927;47.792;10.616;2022-08-01T13:06:08;1.80;;;1.80;;
19560;SDS011;9927;47.792;10.616;2022-08-01T13:08:39;2.10;;;2.10;;
19560;SDS011;9927;47.792;10.616;2022-08-01T13:11:07;1.80;;;1.80;;
19560;SDS011;9927;47.792;10.616;2022-08-01T13:13:41;1.92;;;1.80;;
19560;SDS011;9927;47.792;10.616;2022-08-01T13:16:19;2.55;;;2.38;;
19560;SDS011;9927;47.792;10.616;2022-08-01T13:19:04;2.30;;;2.10;;
19560;SDS011;9927;47.792;10.616;2022-08-01T13:21:33;2.60;;;2.50;;
19560;SDS011;9927;47.792;10.616;2022-08-01T13:24:23;2.45;;;2.35;;
19560;SDS011;9927;47.792;10.616;2022-08-01T13:29:20;1.90;;;1.80;;
19560;SDS011;9927;47.792;10.616;2022-08-01T13:31:55;1.83;;;1.75;;
19560;SDS011;9927;47.792;10.616;2022-08-01T13:34:32;1.70;;;1.70;;
19560;SDS011;9927;47.792;10.616;2022-08-01T13:37:01;1.70;;;1.70;;
19560;SDS011;9927;47.792;10.616;2022-08-01T13:39:28;2.17;;;1.95;;
19560;SDS011;9927;47.792;10.616;2022-08-01T13:42:11;1.80;;;1.70;;
19560;SDS011;9927;47.792;10.616;2022-08-01T13:44:47;1.63;;;1.63;;
19560;SDS011;9927;47.792;10.616;2022-08-01T13:47:15;2.05;;;1.80;;
19560;SDS011;9927;47.792;10.616;2022-08-01T13:49:42;1.58;;;1.58;;
19560;SDS011;9927;47.792;10.616;2022-08-01T13:52:10;1.35;;;1.35;;
19560;SDS011;9927;47.792;10.616;2022-08-01T13:54:37;1.58;;;1.50;;
19560;SDS011;9927;47.792;10.616;2022-08-01T13:57:04;1.55;;;1.55;;
19560;SDS011;9927;47.792;10.616;2022-08-01T13:59:32;2.10;;;1.73;;
19560;SDS011;9927;47.792;10.616;2022-08-01T14:01:59;1.73;;;1.63;;
19560;SDS011;9927;47.792;10.616;2022-08-01T14:04:26;1.88;;;1.77;;
19560;SDS011;9927;47.792;10.616;2022-08-01T14:06:54;1.83;;;1.65;;
19560;SDS011;9927;47.792;10.616;2022-08-01T14:09:21;1.50;;;1.50;;
19560;SDS011;9927;47.792;10.616;2022-08-01T14:11:50;1.70;;;1.60;;
19560;SDS011;9927;47.792;10.616;2022-08-01T14:14:18;1.95;;;1.80;;
19560;SDS011;9927;47.792;10.616;2022-08-01T14:16:46;1.83;;;1.77;;
19560;SDS011;9927;47.792;10.616;2022-08-01T14:19:13;1.77;;;1.55;;
19560;SDS011;9927;47.792;10.616;2022-08-01T14:21:44;1.65;;;1.65;;
19560;SDS011;9927;47.792;10.616;2022-08-01T14:24:12;2.42;;;1.95;;
19560;SDS011;9927;47.792;10.616;2022-08-01T14:26:39;2.20;;;1.98;;
19560;SDS011;9927;47.792;10.616;2022-08-01T14:29:06;1.75;;;1.75;;
19560;SDS011;9927;47.792;10.616;2022-08-01T14:31:45;1.67;;;1.67;;
19560;SDS011;9927;47.792;10.616;2022-08-01T14:34:14;1.70;;;1.70;;
19560;SDS011;9927;47.792;10.616;2022-08-01T14:36:47;2.15;;;1.67;;
19560;SDS011;9927;47.792;10.616;2022-08-01T14:39:17;1.20;;;1.20;;
19560;SDS011;9927;47.792;10.616;2022-08-01T14:41:45;1.88;;;1.80;;
19560;SDS011;9927;47.792;10.616;2022-08-01T14:44:13;1.75;;;1.60;;
19560;SDS011;9927;47.792;10.616;2022-08-01T14:46:41;1.50;;;1.50;;
19560;SDS011;9927;47.792;10.616;2022-08-01T14:49:24;1.52;;;1.52;;
19560;SDS011;9927;47.792;10.616;2022-08-01T14:51:51;2.72;;;1.55;;
19560;SDS011;9927;47.792;10.616;2022-08-01T14:54:19;1.40;;;1.40;;
19560;SDS011;9927;47.792;10.616;2022-08-01T14:56:55;1.60;;;1.50;;
19560;SDS011;9927;47.792;10.616;2022-08-01T14:59:22;1.40;;;1.40;;
19560;SDS011;9927;47.792;10.616;2022-08-01T15:01:50;1.40;;;1.40;;
19560;SDS011;9927;47.792;10.616;2022-08-01T15:04:17;3.92;;;2.10;;
19560;SDS011;9927;47.792;10.616;2022-08-01T15:06:44;6.18;;;2.75;;
19560;SDS011;9927;47.792;10.616;2022-08-01T15:09:11;4.45;;;2.58;;
19560;SDS011;9927;47.792;10.616;2022-08-01T15:11:38;5.45;;;2.78;;
19560;SDS011;9927;47.792;10.616;2022-08-01T15:14:06;4.25;;;3.00;;
19560;SDS011;9927;47.792;10.616;2022-08-01T15:16:52;3.28;;;3.08;;
19560;SDS011;9927;47.792;10.616;2022-08-01T15:19:19;2.88;;;2.67;;
19560;SDS011;9927;47.792;10.616;2022-08-01T15:21:46;2.70;;;2.60;;
19560;SDS011;9927;47.792;10.616;2022-08-01T15:24:14;2.55;;;2.45;;
19560;SDS011;9927;47.792;10.616;2022-08-01T15:26:42;2.90;;;2.70;;
19560;SDS011;9927;47.792;10.616;2022-08-01T15:29:10;2.80;;;2.70;;
19560;SDS011;9927;47.792;10.616;2022-08-01T15:31:38;3.00;;;2.80;;
19560;SDS011;9927;47.792;10.616;2022-08-01T15:34:05;2.60;;;2.40;;
19560;SDS011;9927;47.792;10.616;2022-08-01T15:36:33;2.65;;;2.45;;
19560;SDS011;9927;47.792;10.616;2022-08-01T15:39:00;2.72;;;2.53;;
19560;SDS011;9927;47.792;10.616;2022-08-01T15:41:27;2.55;;;2.35;;
19560;SDS011;9927;47.792;10.616;2022-08-01T15:43:55;2.97;;;2.75;;
19560;SDS011;9927;47.792;10.616;2022-08-01T15:46:22;2.20;;;2.10;;
19560;SDS011;9927;47.792;10.616;2022-08-01T15:48:50;2.75;;;2.63;;
19560;SDS011;9927;47.792;10.616;2022-08-01T15:51:17;2.35;;;2.35;;
19560;SDS011;9927;47.792;10.616;2022-08-01T15:53:45;2.63;;;2.53;;
19560;SDS011;9927;47.792;10.616;2022-08-01T15:56:13;3.00;;;2.80;;
19560;SDS011;9927;47.792;10.616;2022-08-01T15:58:40;3.00;;;2.80;;
19560;SDS011;9927;47.792;10.616;2022-08-01T16:01:07;2.72;;;2.53;;
19560;SDS011;9927;47.792;10.616;2022-08-01T16:03:35;3.05;;;2.80;;
19560;SDS011;9927;47.792;10.616;2022-08-01T16:06:02;2.95;;;2.70;;
19560;SDS011;9927;47.792;10.616;2022-08-01T16:08:29;2.60;;;2.50;;
19560;SDS011;9927;47.792;10.616;2022-08-01T16:10:57;3.10;;;2.90;;
19560;SDS011;9927;47.792;10.616;2022-08-01T16:13:24;3.53;;;3.33;;
19560;SDS011;9927;47.792;10.616;2022-08-01T16:15:51;6.00;;;3.00;;
19560;SDS011;9927;47.792;10.616;2022-08-01T16:18:18;3.10;;;3.00;;
19560;SDS011;9927;47.792;10.616;2022-08-01T16:20:48;3.33;;;3.00;;
19560;SDS011;9927;47.792;10.616;2022-08-01T16:23:15;3.75;;;3.10;;
19560;SDS011;9927;47.792;10.616;2022-08-01T16:25:43;3.65;;;3.20;;
19560;SDS011;9927;47.792;10.616;2022-08-01T16:28:13;2.88;;;2.78;;
19560;SDS011;9927;47.792;10.616;2022-08-01T16:30:40;2.97;;;2.72;;
19560;SDS011;9927;47.792;10.616;2022-08-01T16:33:28;3.42;;;3.20;;
19560;SDS011;9927;47.792;10.616;2022-08-01T16:36:15;3.40;;;3.10;;
19560;SDS011;9927;47.792;10.616;2022-08-01T16:38:43;3.20;;;2.97;;
19560;SDS011;9927;47.792;10.616;2022-08-01T16:41:11;3.63;;;3.33;;
19560;SDS011;9927;47.792;10.616;2022-08-01T16:43:46;2.97;;;2.78;;
19560;SDS011;9927;47.792;10.616;2022-08-01T16:46:19;3.08;;;2.90;;
19560;SDS011;9927;47.792;10.616;2022-08-01T16:48:47;3.45;;;3.15;;
19560;SDS011;9927;47.792;10.616;2022-08-01T16:51:15;3.45;;;3.25;;
19560;SDS011;9927;47.792;10.616;2022-08-01T16:53:42;3.20;;;3.10;;
19560;SDS011;9927;47.792;10.616;2022-08-01T16:56:09;2.92;;;2.83;;
19560;SDS011;9927;47.792;10.616;2022-08-01T16:58:36;2.92;;;2.83;;
19560;SDS011;9927;47.792;10.616;2022-08-01T17:01:04;3.95;;;3.22;;
19560;SDS011;9927;47.792;10.616;2022-08-01T17:03:51;3.88;;;3.50;;
19560;SDS011;9927;47.792;10.616;2022-08-01T17:06:25;3.40;;;3.20;;
19560;SDS011;9927;47.792;10.616;2022-08-01T17:08:52;3.10;;;2.80;;
19560;SDS011;9927;47.792;10.616;2022-08-01T17:11:19;2.97;;;2.78;;
19560;SDS011;9927;47.792;10.616;2022-08-01T17:13:47;2.53;;;2.40;;
19560;SDS011;9927;47.792;10.616;2022-08-01T17:16:14;3.05;;;2.90;;
19560;SDS011;9927;47.792;10.616;2022-08-01T17:18:41;3.17;;;2.90;;
19560;SDS011;9927;47.792;10.616;2022-08-01T17:21:09;3.22;;;3.10;;
19560;SDS011;9927;47.792;10.616;2022-08-01T17:23:37;2.90;;;2.80;;
19560;SDS011;9927;47.792;10.616;2022-08-01T17:26:04;2.88;;;2.78;;
19560;SDS011;9927;47.792;10.616;2022-08-01T17:28:32;2.80;;;2.70;;
19560;SDS011;9927;47.792;10.616;2022-08-01T17:30:59;2.60;;;2.50;;
19560;SDS011;9927;47.792;10.616;2022-08-01T17:33:26;3.20;;;3.00;;
19560;SDS011;9927;47.792;10.616;2022-08-01T17:36:12;2.47;;;2.38;;
19560;SDS011;9927;47.792;10.616;2022-08-01T17:38:39;3.58;;;2.50;;
19560;SDS011;9927;47.792;10.616;2022-08-01T17:41:07;2.30;;;2.20;;
19560;SDS011;9927;47.792;10.616;2022-08-01T17:43:34;2.45;;;2.35;;
19560;SDS011;9927;47.792;10.616;2022-08-01T17:46:01;3.33;;;2.60;;
19560;SDS011;9927;47.792;10.616;2022-08-01T17:48:29;2.35;;;2.33;;
19560;SDS011;9927;47.792;10.616;2022-08-01T17:50:56;2.88;;;2.67;;
19560;SDS011;9927;47.792;10.616;2022-08-01T17:53:23;2.90;;;2.78;;
19560;SDS011;9927;47.792;10.616;2022-08-01T17:55:50;2.53;;;2.40;;
19560;SDS011;9927;47.792;10.616;2022-08-01T17:58:23;2.60;;;2.50;;
19560;SDS011;9927;47.792;10.616;2022-08-01T18:01:11;2.65;;;2.45;;
19560;SDS011;9927;47.792;10.616;2022-08-01T18:03:39;2.90;;;2.80;;
19560;SDS011;9927;47.792;10.616;2022-08-01T18:06:08;2.92;;;2.67;;
19560;SDS011;9927;47.792;10.616;2022-08-01T18:08:36;2.65;;;2.45;;
19560;SDS011;9927;47.792;10.616;2022-08-01T18:11:06;3.00;;;2.90;;
19560;SDS011;9927;47.792;10.616;2022-08-01T18:13:35;2.90;;;2.63;;
19560;SDS011;9927;47.792;10.616;2022-08-01T18:16:06;2.50;;;2.40;;
19560;SDS011;9927;47.792;10.616;2022-08-01T18:18:37;2.55;;;2.45;;
19560;SDS011;9927;47.792;10.616;2022-08-01T18:21:05;2.45;;;2.28;;
19560;SDS011;9927;47.792;10.616;2022-08-01T18:23:33;3.17;;;2.53;;
19560;SDS011;9927;47.792;10.616;2022-08-01T18:26:00;2.63;;;2.53;;
19560;SDS011;9927;47.792;10.616;2022-08-01T18:28:29;2.42;;;2.38;;
19560;SDS011;9927;47.792;10.616;2022-08-01T18:31:04;2.22;;;2.15;;
19560;SDS011;9927;47.792;10.616;2022-08-01T18:33:34;2.35;;;2.33;;
19560;SDS011;9927;47.792;10.616;2022-08-01T18:36:02;2.70;;;2.60;;
19560;SDS011;9927;47.792;10.616;2022-08-01T18:38:30;3.00;;;2.90;;
19560;SDS011;9927;47.792;10.616;2022-08-01T18:41:00;3.10;;;2.90;;
19560;SDS011;9927;47.792;10.616;2022-08-01T18:43:28;2.88;;;2.67;;
19560;SDS011;9927;47.792;10.616;2022-08-01T18:45:55;2.60;;;2.50;;
19560;SDS011;9927;47.792;10.616;2022-08-01T18:48:23;2.90;;;2.80;;
19560;SDS011;9927;47.792;10.616;2022-08-01T18:50:50;2.90;;;2.75;;